Dixie Vandal — WDC2682 — position and weather

sailwx.info

Track history (hours):
 
Tides and Currents Weather Stations Pressure Air Temp Water Temp Dewpoint Dewpoint Depression Visibility Wind Speed Wind Dir Waves Ship Positions

Dixie Vandal

Owner: Kirby Inland Marine LP, Houston, TX. More information available from US FCC via Universal Licensing System and Coast Guard Vessel Documentation Center.

Last reported at 2017-Oct-19 13:08 UTC. Time now 2017-Oct-19 16:16 UTC.
Position N 29°44' W 095°17'.

Length 114 m; draft 2.9 m.

Type: . MMSI: 366996360.

Date/timePositionNaut miles runAvg speedWind from/ knotsBaromVisibWave heightAir tempDewpointWater temp
2017-Oct-19 13:08N 29°44' W 095°17'0 0.1
2017-Oct-19 12:55N 29°44' W 095°17'3 4.5
2017-Oct-19 12:11N 29°44' W 095°13'1 6.0
2017-Oct-19 11:58N 29°44' W 095°12'3 6.0
2017-Oct-19 11:29N 29°44' W 095°09'1 0.9
2017-Oct-19 10:23N 29°44' W 095°08'0 0.0
2017-Oct-19 09:53N 29°44' W 095°08'0 0.0
2017-Oct-19 09:28N 29°44' W 095°08'0 0.0
2017-Oct-19 08:59N 29°44' W 095°08'0 0.0
2017-Oct-19 08:28N 29°44' W 095°08'0 0.0
2017-Oct-19 07:51N 29°44' W 095°08'0 0.0
2017-Oct-19 07:28N 29°44' W 095°08'0 0.0
2017-Oct-19 07:00N 29°44' W 095°08'0 0.0
2017-Oct-19 06:29N 29°44' W 095°08'0 0.0
2017-Oct-19 05:59N 29°44' W 095°08'3 2.9
2017-Oct-19 05:02N 29°46' W 095°05'0 0.2
2017-Oct-19 04:36N 29°46' W 095°05'0 0.2
2017-Oct-19 04:22N 29°46' W 095°05'1 3.4
2017-Oct-19 03:58N 29°45' W 095°06'0 0.0
2017-Oct-19 03:30N 29°45' W 095°06'0 0.0
2017-Oct-19 02:59N 29°45' W 095°06'0 0.0
2017-Oct-19 02:30N 29°45' W 095°06'0 0.0
2017-Oct-19 02:00N 29°45' W 095°06'0 0.0
2017-Oct-19 01:30N 29°45' W 095°06'0 0.0
2017-Oct-19 01:00N 29°45' W 095°06'0 0.0
2017-Oct-19 00:29N 29°45' W 095°06'0 0.0
2017-Oct-18 23:57N 29°45' W 095°06'0 0.0
2017-Oct-18 23:30N 29°45' W 095°06'0 0.0
2017-Oct-18 22:09N 29°45' W 095°06'0 0.0
2017-Oct-18 21:55N 29°45' W 095°06'0 0.0
2017-Oct-18 21:28N 29°45' W 095°06'1 0.1
2017-Oct-18 08:57N 29°46' W 095°06'0 0.4
2017-Oct-18 08:30N 29°46' W 095°05'1 2.7
2017-Oct-18 07:59N 29°45' W 095°06'4 2.1
2017-Oct-18 06:12N 29°45' W 095°10'0 0.0
2017-Oct-18 05:58N 29°45' W 095°10'0 0.0
2017-Oct-18 05:29N 29°45' W 095°10'0 0.0
2017-Oct-18 05:00N 29°45' W 095°10'0 0.0
2017-Oct-18 04:28N 29°45' W 095°10'0 0.0
2017-Oct-18 03:59N 29°45' W 095°10'0 0.0
2017-Oct-18 03:18N 29°45' W 095°10'0 0.0
2017-Oct-18 03:01N 29°45' W 095°10'0 0.0
2017-Oct-18 01:05N 29°45' W 095°10'0 0.7
2017-Oct-18 00:35N 29°45' W 095°10'1 6.2
2017-Oct-18 00:30N 29°45' W 095°10'3 0.3
2017-Oct-17 15:12N 29°45' W 095°06'0 0.0
2017-Oct-17 14:51N 29°45' W 095°06'0 0.0
2017-Oct-17 14:19N 29°45' W 095°06'0 0.0
2017-Oct-17 13:56N 29°45' W 095°06'0 0.0
2017-Oct-17 13:24N 29°45' W 095°06'0 0.0
2017-Oct-17 13:00N 29°45' W 095°06'0 0.0
2017-Oct-17 12:28N 29°45' W 095°06'0 0.0
2017-Oct-17 11:56N 29°45' W 095°06'0 0.0
2017-Oct-17 11:30N 29°45' W 095°06'0 0.0
2017-Oct-17 11:00N 29°45' W 095°06'2 4.9
2017-Oct-17 10:30N 29°44' W 095°09'3 5.1
2017-Oct-17 10:00N 29°45' W 095°12'0 0.1
2017-Oct-17 07:37N 29°44' W 095°12'0 1.3
2017-Oct-17 07:30N 29°44' W 095°12'3 5.4
2017-Oct-17 06:59N 29°43' W 095°15'1 2.6
2017-Oct-17 06:30N 29°44' W 095°17'0 0.0
2017-Oct-17 06:01N 29°44' W 095°17'0 0.0
2017-Oct-17 05:30N 29°44' W 095°17'0 0.0
2017-Oct-17 05:01N 29°44' W 095°17'0 0.0
2017-Oct-17 04:30N 29°44' W 095°17'0 0.0
2017-Oct-17 04:00N 29°44' W 095°17'0 0.0
2017-Oct-17 03:30N 29°44' W 095°17'0 0.0
2017-Oct-17 03:00N 29°44' W 095°17'1 1.0
2017-Oct-17 02:30N 29°44' W 095°16'3 5.7
2017-Oct-17 01:59N 29°44' W 095°13'3 5.7
2017-Oct-17 01:30N 29°45' W 095°10'4 1.4
2017-Oct-16 22:52N 29°45' W 095°06'0 0.0
2017-Oct-16 13:14N 29°45' W 095°06'0 0.8
2017-Oct-16 13:00N 29°46' W 095°06'5 0.7
2017-Oct-16 06:00N 29°42' W 095°01'2 3.9
2017-Oct-16 05:30N 29°41' W 094°60'0 0.8
2017-Oct-16 05:00N 29°41' W 095°00'0 0.0
2017-Oct-16 04:30N 29°41' W 095°00'0 0.0
2017-Oct-16 03:34N 29°41' W 095°00'0 0.2
2017-Oct-16 03:30N 29°41' W 095°00'0 0.0
2017-Oct-16 02:59N 29°41' W 095°00'0 0.0
2017-Oct-16 02:30N 29°41' W 095°00'0 0.0
2017-Oct-16 01:59N 29°41' W 095°00'0 0.0
2017-Oct-16 01:30N 29°41' W 095°00'0 0.0
2017-Oct-16 01:00N 29°41' W 095°00'0 0.0
2017-Oct-16 00:30N 29°41' W 095°00'0 0.0
2017-Oct-16 00:00N 29°41' W 095°00'0 0.0
2017-Oct-15 23:30N 29°41' W 095°00'0 0.0
2017-Oct-15 22:59N 29°41' W 095°00'0 1.0
2017-Oct-15 22:30N 29°41' W 094°60'2 4.5
2017-Oct-15 22:00N 29°43' W 095°01'2 0.2
2017-Oct-15 11:35N 29°44' W 095°03'0 0.1
2017-Oct-15 11:11N 29°44' W 095°03'0 0.1
2017-Oct-15 10:59N 29°44' W 095°03'0 0.1
2017-Oct-15 10:30N 29°44' W 095°03'0 0.0
2017-Oct-15 10:00N 29°44' W 095°03'0 0.0
2017-Oct-15 09:30N 29°44' W 095°03'0 0.0
2017-Oct-15 09:00N 29°44' W 095°03'0 0.0
2017-Oct-15 08:30N 29°44' W 095°03'0 0.1
2017-Oct-15 08:00N 29°44' W 095°03'1 2.6
2017-Oct-15 07:28N 29°45' W 095°04'5 0.5
2017-Oct-14 22:10N 29°44' W 095°10'1 0.2
2017-Oct-14 16:57N 29°45' W 095°11'0 0.0
2017-Oct-14 13:14N 29°45' W 095°11'0 0.4
2017-Oct-14 12:46N 29°45' W 095°10'2 3.6
2017-Oct-14 12:20N 29°44' W 095°09'2 3.8
2017-Oct-14 11:42N 29°45' W 095°06'1 0.1
2017-Oct-13 21:17N 29°46' W 095°05'5 5.6
2017-Oct-13 20:26N 29°43' W 095°01'3 5.9
2017-Oct-13 19:59N 29°41' W 094°59'4 6.6
2017-Oct-13 19:22N 29°37' W 094°57'3 6.8
2017-Oct-13 19:00N 29°35' W 094°56'3 6.8
2017-Oct-13 18:30N 29°32' W 094°54'0 0.0
2017-Oct-13 02:15N 29°32' W 094°54'2 6.5
2017-Oct-13 02:00N 29°33' W 094°55'3 6.6
2017-Oct-13 01:30N 29°36' W 094°57'3 6.7
2017-Oct-13 01:00N 29°39' W 094°58'4 6.8
2017-Oct-13 00:26N 29°42' W 095°01'4 6.2
2017-Oct-12 23:51N 29°45' W 095°04'4 5.1
2017-Oct-12 23:04N 29°44' W 095°08'5 5.7
2017-Oct-12 22:06N 29°43' W 095°14'1 5.3
2017-Oct-12 22:00N 29°43' W 095°15'1 2.3
2017-Oct-12 21:30N 29°44' W 095°16'0 0.0
2017-Oct-12 20:56N 29°44' W 095°16'0 0.0
2017-Oct-12 20:21N 29°44' W 095°16'0 0.0
2017-Oct-12 16:21N 29°44' W 095°16'0 0.0
2017-Oct-12 16:00N 29°44' W 095°16'0 0.0
2017-Oct-12 15:24N 29°44' W 095°16'0 0.0
2017-Oct-12 15:00N 29°44' W 095°16'0 0.0
2017-Oct-12 14:31N 29°44' W 095°16'0 0.0
2017-Oct-12 14:01N 29°44' W 095°16'3 4.7
2017-Oct-12 13:29N 29°44' W 095°13'3 5.6
2017-Oct-12 12:56N 29°45' W 095°10'3 5.9
2017-Oct-12 12:30N 29°44' W 095°07'1 0.1
2017-Oct-12 05:23N 29°45' W 095°07'1 2.8
2017-Oct-12 05:00N 29°45' W 095°06'0 0.2
2017-Oct-12 04:30N 29°46' W 095°06'0 0.1
2017-Oct-12 04:00N 29°46' W 095°06'2 2.9
2017-Oct-12 03:23N 29°44' W 095°07'2 6.0
2017-Oct-12 03:00N 29°44' W 095°10'3 5.5
2017-Oct-12 02:29N 29°44' W 095°13'3 0.9
2017-Oct-11 23:32N 29°44' W 095°16'0 0.0
2017-Oct-11 17:54N 29°44' W 095°16'1 1.6
2017-Oct-11 17:30N 29°43' W 095°15'3 5.1
2017-Oct-11 16:55N 29°44' W 095°12'2 0.1
2017-Oct-10 15:29N 29°44' W 095°13'3 5.1
2017-Oct-10 14:57N 29°45' W 095°11'4 0.5
2017-Oct-10 07:18N 29°45' W 095°06'0 0.0
2017-Oct-10 06:00N 29°45' W 095°06'0 0.0
2017-Oct-10 03:49N 29°45' W 095°06'0 0.0
2017-Oct-10 01:44N 29°45' W 095°06'1 0.7
2017-Oct-10 00:56N 29°45' W 095°06'2 4.0
2017-Oct-10 00:26N 29°45' W 095°04'3 6.1
2017-Oct-09 23:57N 29°42' W 095°01'3 6.7
2017-Oct-09 23:30N 29°40' W 094°59'4 7.1
2017-Oct-09 23:00N 29°37' W 094°57'4 7.4
2017-Oct-09 22:30N 29°34' W 094°55'  
Track history (hours):
 
Tides and Currents Weather Stations Pressure Air Temp Water Temp Dewpoint Dewpoint Depression Visibility Wind Speed Wind Dir Waves Ship Positions

Dixie Vandal

Owner: Kirby Inland Marine LP, Houston, TX. More information available from US FCC via Universal Licensing System and Coast Guard Vessel Documentation Center.

Last reported at 2017-Oct-19 13:08 UTC. Time now 2017-Oct-19 16:16 UTC.
Position N 29°44' W 095°17'.

Length 114 m; draft 2.9 m.

Type: . MMSI: 366996360.

Date/timePositionNaut miles runAvg speedWind from/ knotsBaromVisibWave heightAir tempDewpointWater temp
2017-Oct-19 13:08N 29°44' W 095°17'0 0.1
2017-Oct-19 12:55N 29°44' W 095°17'3 4.5
2017-Oct-19 12:11N 29°44' W 095°13'1 6.0
2017-Oct-19 11:58N 29°44' W 095°12'3 6.0
2017-Oct-19 11:29N 29°44' W 095°09'1 0.9
2017-Oct-19 10:23N 29°44' W 095°08'0 0.0
2017-Oct-19 09:53N 29°44' W 095°08'0 0.0
2017-Oct-19 09:28N 29°44' W 095°08'0 0.0
2017-Oct-19 08:59N 29°44' W 095°08'0 0.0
2017-Oct-19 08:28N 29°44' W 095°08'0 0.0
2017-Oct-19 07:51N 29°44' W 095°08'0 0.0
2017-Oct-19 07:28N 29°44' W 095°08'0 0.0
2017-Oct-19 07:00N 29°44' W 095°08'0 0.0
2017-Oct-19 06:29N 29°44' W 095°08'0 0.0
2017-Oct-19 05:59N 29°44' W 095°08'3 2.9
2017-Oct-19 05:02N 29°46' W 095°05'0 0.2
2017-Oct-19 04:36N 29°46' W 095°05'0 0.2
2017-Oct-19 04:22N 29°46' W 095°05'1 3.4
2017-Oct-19 03:58N 29°45' W 095°06'0 0.0
2017-Oct-19 03:30N 29°45' W 095°06'0 0.0
2017-Oct-19 02:59N 29°45' W 095°06'0 0.0
2017-Oct-19 02:30N 29°45' W 095°06'0 0.0
2017-Oct-19 02:00N 29°45' W 095°06'0 0.0
2017-Oct-19 01:30N 29°45' W 095°06'0 0.0
2017-Oct-19 01:00N 29°45' W 095°06'0 0.0
2017-Oct-19 00:29N 29°45' W 095°06'0 0.0
2017-Oct-18 23:57N 29°45' W 095°06'0 0.0
2017-Oct-18 23:30N 29°45' W 095°06'0 0.0
2017-Oct-18 22:09N 29°45' W 095°06'0 0.0
2017-Oct-18 21:55N 29°45' W 095°06'0 0.0
2017-Oct-18 21:28N 29°45' W 095°06'1 0.1
2017-Oct-18 08:57N 29°46' W 095°06'0 0.4
2017-Oct-18 08:30N 29°46' W 095°05'1 2.7
2017-Oct-18 07:59N 29°45' W 095°06'4 2.1
2017-Oct-18 06:12N 29°45' W 095°10'0 0.0
2017-Oct-18 05:58N 29°45' W 095°10'0 0.0
2017-Oct-18 05:29N 29°45' W 095°10'0 0.0
2017-Oct-18 05:00N 29°45' W 095°10'0 0.0
2017-Oct-18 04:28N 29°45' W 095°10'0 0.0
2017-Oct-18 03:59N 29°45' W 095°10'0 0.0
2017-Oct-18 03:18N 29°45' W 095°10'0 0.0
2017-Oct-18 03:01N 29°45' W 095°10'0 0.0
2017-Oct-18 01:05N 29°45' W 095°10'0 0.7
2017-Oct-18 00:35N 29°45' W 095°10'1 6.2
2017-Oct-18 00:30N 29°45' W 095°10'3 0.3
2017-Oct-17 15:12N 29°45' W 095°06'0 0.0
2017-Oct-17 14:51N 29°45' W 095°06'0 0.0
2017-Oct-17 14:19N 29°45' W 095°06'0 0.0
2017-Oct-17 13:56N 29°45' W 095°06'0 0.0
2017-Oct-17 13:24N 29°45' W 095°06'0 0.0
2017-Oct-17 13:00N 29°45' W 095°06'0 0.0
2017-Oct-17 12:28N 29°45' W 095°06'0 0.0
2017-Oct-17 11:56N 29°45' W 095°06'0 0.0
2017-Oct-17 11:30N 29°45' W 095°06'0 0.0
2017-Oct-17 11:00N 29°45' W 095°06'2 4.9
2017-Oct-17 10:30N 29°44' W 095°09'3 5.1
2017-Oct-17 10:00N 29°45' W 095°12'0 0.1
2017-Oct-17 07:37N 29°44' W 095°12'0 1.3
2017-Oct-17 07:30N 29°44' W 095°12'3 5.4
2017-Oct-17 06:59N 29°43' W 095°15'1 2.6
2017-Oct-17 06:30N 29°44' W 095°17'0 0.0
2017-Oct-17 06:01N 29°44' W 095°17'0 0.0
2017-Oct-17 05:30N 29°44' W 095°17'0 0.0
2017-Oct-17 05:01N 29°44' W 095°17'0 0.0
2017-Oct-17 04:30N 29°44' W 095°17'0 0.0
2017-Oct-17 04:00N 29°44' W 095°17'0 0.0
2017-Oct-17 03:30N 29°44' W 095°17'0 0.0
2017-Oct-17 03:00N 29°44' W 095°17'1 1.0
2017-Oct-17 02:30N 29°44' W 095°16'3 5.7
2017-Oct-17 01:59N 29°44' W 095°13'3 5.7
2017-Oct-17 01:30N 29°45' W 095°10'4 1.4
2017-Oct-16 22:52N 29°45' W 095°06'0 0.0
2017-Oct-16 13:14N 29°45' W 095°06'0 0.8
2017-Oct-16 13:00N 29°46' W 095°06'5 0.7
2017-Oct-16 06:00N 29°42' W 095°01'2 3.9
2017-Oct-16 05:30N 29°41' W 094°60'0 0.8
2017-Oct-16 05:00N 29°41' W 095°00'0 0.0
2017-Oct-16 04:30N 29°41' W 095°00'0 0.0
2017-Oct-16 03:34N 29°41' W 095°00'0 0.2
2017-Oct-16 03:30N 29°41' W 095°00'0 0.0
2017-Oct-16 02:59N 29°41' W 095°00'0 0.0
2017-Oct-16 02:30N 29°41' W 095°00'0 0.0
2017-Oct-16 01:59N 29°41' W 095°00'0 0.0
2017-Oct-16 01:30N 29°41' W 095°00'0 0.0
2017-Oct-16 01:00N 29°41' W 095°00'0 0.0
2017-Oct-16 00:30N 29°41' W 095°00'0 0.0
2017-Oct-16 00:00N 29°41' W 095°00'0 0.0
2017-Oct-15 23:30N 29°41' W 095°00'0 0.0
2017-Oct-15 22:59N 29°41' W 095°00'0 1.0
2017-Oct-15 22:30N 29°41' W 094°60'2 4.5
2017-Oct-15 22:00N 29°43' W 095°01'2 0.2
2017-Oct-15 11:35N 29°44' W 095°03'0 0.1
2017-Oct-15 11:11N 29°44' W 095°03'0 0.1
2017-Oct-15 10:59N 29°44' W 095°03'0 0.1
2017-Oct-15 10:30N 29°44' W 095°03'0 0.0
2017-Oct-15 10:00N 29°44' W 095°03'0 0.0
2017-Oct-15 09:30N 29°44' W 095°03'0 0.0
2017-Oct-15 09:00N 29°44' W 095°03'0 0.0
2017-Oct-15 08:30N 29°44' W 095°03'0 0.1
2017-Oct-15 08:00N 29°44' W 095°03'1 2.6
2017-Oct-15 07:28N 29°45' W 095°04'5 0.5
2017-Oct-14 22:10N 29°44' W 095°10'1 0.2
2017-Oct-14 16:57N 29°45' W 095°11'0 0.0
2017-Oct-14 13:14N 29°45' W 095°11'0 0.4
2017-Oct-14 12:46N 29°45' W 095°10'2 3.6
2017-Oct-14 12:20N 29°44' W 095°09'2 3.8
2017-Oct-14 11:42N 29°45' W 095°06'1 0.1
2017-Oct-13 21:17N 29°46' W 095°05'5 5.6
2017-Oct-13 20:26N 29°43' W 095°01'3 5.9
2017-Oct-13 19:59N 29°41' W 094°59'4 6.6
2017-Oct-13 19:22N 29°37' W 094°57'3 6.8
2017-Oct-13 19:00N 29°35' W 094°56'3 6.8
2017-Oct-13 18:30N 29°32' W 094°54'0 0.0
2017-Oct-13 02:15N 29°32' W 094°54'2 6.5
2017-Oct-13 02:00N 29°33' W 094°55'3 6.6
2017-Oct-13 01:30N 29°36' W 094°57'3 6.7
2017-Oct-13 01:00N 29°39' W 094°58'4 6.8
2017-Oct-13 00:26N 29°42' W 095°01'4 6.2
2017-Oct-12 23:51N 29°45' W 095°04'4 5.1
2017-Oct-12 23:04N 29°44' W 095°08'5 5.7
2017-Oct-12 22:06N 29°43' W 095°14'1 5.3
2017-Oct-12 22:00N 29°43' W 095°15'1 2.3
2017-Oct-12 21:30N 29°44' W 095°16'0 0.0
2017-Oct-12 20:56N 29°44' W 095°16'0 0.0
2017-Oct-12 20:21N 29°44' W 095°16'0 0.0
2017-Oct-12 16:21N 29°44' W 095°16'0 0.0
2017-Oct-12 16:00N 29°44' W 095°16'0 0.0
2017-Oct-12 15:24N 29°44' W 095°16'0 0.0
2017-Oct-12 15:00N 29°44' W 095°16'0 0.0
2017-Oct-12 14:31N 29°44' W 095°16'0 0.0
2017-Oct-12 14:01N 29°44' W 095°16'3 4.7
2017-Oct-12 13:29N 29°44' W 095°13'3 5.6
2017-Oct-12 12:56N 29°45' W 095°10'3 5.9
2017-Oct-12 12:30N 29°44' W 095°07'1 0.1
2017-Oct-12 05:23N 29°45' W 095°07'1 2.8
2017-Oct-12 05:00N 29°45' W 095°06'0 0.2
2017-Oct-12 04:30N 29°46' W 095°06'0 0.1
2017-Oct-12 04:00N 29°46' W 095°06'2 2.9
2017-Oct-12 03:23N 29°44' W 095°07'2 6.0
2017-Oct-12 03:00N 29°44' W 095°10'3 5.5
2017-Oct-12 02:29N 29°44' W 095°13'3 0.9
2017-Oct-11 23:32N 29°44' W 095°16'0 0.0
2017-Oct-11 17:54N 29°44' W 095°16'1 1.6
2017-Oct-11 17:30N 29°43' W 095°15'3 5.1
2017-Oct-11 16:55N 29°44' W 095°12'2 0.1
2017-Oct-10 15:29N 29°44' W 095°13'3 5.1
2017-Oct-10 14:57N 29°45' W 095°11'4 0.5
2017-Oct-10 07:18N 29°45' W 095°06'0 0.0
2017-Oct-10 06:00N 29°45' W 095°06'0 0.0
2017-Oct-10 03:49N 29°45' W 095°06'0 0.0
2017-Oct-10 01:44N 29°45' W 095°06'1 0.7
2017-Oct-10 00:56N 29°45' W 095°06'2 4.0
2017-Oct-10 00:26N 29°45' W 095°04'3 6.1
2017-Oct-09 23:57N 29°42' W 095°01'3 6.7
2017-Oct-09 23:30N 29°40' W 094°59'4 7.1
2017-Oct-09 23:00N 29°37' W 094°57'4 7.4
2017-Oct-09 22:30N 29°34' W 094°55'  

Dump ship's entire track history